sensor_id;sensor_type;location;lat;lon;timestamp;pressure;altitude;pressure_sealevel;temperature;humidity
9538;BME280;4807;48.024;11.726;2024-01-15T00:01:42;93662.53;;;-1.31;97.21
9538;BME280;4807;48.024;11.726;2024-01-15T00:04:51;93660.53;;;-1.45;97.74
9538;BME280;4807;48.024;11.726;2024-01-15T00:08:00;93660.41;;;-1.27;96.97
9538;BME280;4807;48.024;11.726;2024-01-15T00:11:08;93660.28;;;-0.85;96.55
9538;BME280;4807;48.024;11.726;2024-01-15T00:14:16;93651.13;;;-0.73;95.50
9538;BME280;4807;48.024;11.726;2024-01-15T00:17:28;93654.72;;;-0.90;95.61
9538;BME280;4807;48.024;11.726;2024-01-15T00:20:36;93648.53;;;-0.81;95.86
9538;BME280;4807;48.024;11.726;2024-01-15T00:23:45;93654.53;;;-0.72;95.18
9538;BME280;4807;48.024;11.726;2024-01-15T00:26:53;93662.38;;;-0.64;94.77
9538;BME280;4807;48.024;11.726;2024-01-15T00:30:03;93660.75;;;-0.57;94.17
9538;BME280;4807;48.024;11.726;2024-01-15T00:33:13;93662.03;;;-0.53;93.03
9538;BME280;4807;48.024;11.726;2024-01-15T00:36:22;93657.47;;;-0.59;93.50
9538;BME280;4807;48.024;11.726;2024-01-15T00:39:30;93659.25;;;-0.44;92.90
9538;BME280;4807;48.024;11.726;2024-01-15T00:42:39;93682.13;;;-0.54;91.95
9538;BME280;4807;48.024;11.726;2024-01-15T00:45:47;93683.09;;;-0.47;92.83
9538;BME280;4807;48.024;11.726;2024-01-15T00:48:57;93675.44;;;-0.56;92.74
9538;BME280;4807;48.024;11.726;2024-01-15T00:52:06;93688.19;;;-0.61;93.30
9538;BME280;4807;48.024;11.726;2024-01-15T00:55:14;93672.50;;;-0.45;92.83
9538;BME280;4807;48.024;11.726;2024-01-15T00:58:22;93674.63;;;-0.49;91.82
9538;BME280;4807;48.024;11.726;2024-01-15T01:01:31;93672.03;;;-0.49;92.04
9538;BME280;4807;48.024;11.726;2024-01-15T01:04:41;93677.88;;;-0.47;92.10
9538;BME280;4807;48.024;11.726;2024-01-15T01:07:49;93691.31;;;-0.58;91.72
9538;BME280;4807;48.024;11.726;2024-01-15T01:10:57;93686.41;;;-0.61;92.42
9538;BME280;4807;48.024;11.726;2024-01-15T01:14:05;93688.50;;;-0.56;92.41
9538;BME280;4807;48.024;11.726;2024-01-15T01:17:14;93689.31;;;-0.56;92.70
9538;BME280;4807;48.024;11.726;2024-01-15T01:20:24;93691.31;;;-0.58;92.95
9538;BME280;4807;48.024;11.726;2024-01-15T01:23:32;93690.47;;;-0.58;91.83
9538;BME280;4807;48.024;11.726;2024-01-15T01:26:41;93698.34;;;-0.66;92.80
9538;BME280;4807;48.024;11.726;2024-01-15T01:29:49;93697.66;;;-0.68;91.83
9538;BME280;4807;48.024;11.726;2024-01-15T01:32:57;93719.41;;;-0.76;92.24
9538;BME280;4807;48.024;11.726;2024-01-15T01:36:09;93716.13;;;-0.78;92.25
9538;BME280;4807;48.024;11.726;2024-01-15T01:39:17;93717.59;;;-0.75;90.55
9538;BME280;4807;48.024;11.726;2024-01-15T01:42:26;93724.13;;;-0.80;91.17
9538;BME280;4807;48.024;11.726;2024-01-15T01:45:35;93725.75;;;-0.87;91.12
9538;BME280;4807;48.024;11.726;2024-01-15T01:48:46;93731.63;;;-0.93;91.49
9538;BME280;4807;48.024;11.726;2024-01-15T01:51:59;93728.84;;;-0.99;91.53
9538;BME280;4807;48.024;11.726;2024-01-15T01:55:10;93734.69;;;-1.22;91.00
9538;BME280;4807;48.024;11.726;2024-01-15T01:58:19;93735.97;;;-1.26;89.95
9538;BME280;4807;48.024;11.726;2024-01-15T02:01:28;93724.97;;;-1.37;90.23
9538;BME280;4807;48.024;11.726;2024-01-15T02:04:37;93717.44;;;-1.57;89.79
9538;BME280;4807;48.024;11.726;2024-01-15T02:07:47;93715.88;;;-1.75;89.68
9538;BME280;4807;48.024;11.726;2024-01-15T02:10:55;93720.63;;;-1.79;90.09
9538;BME280;4807;48.024;11.726;2024-01-15T02:14:03;93715.03;;;-1.84;88.81
9538;BME280;4807;48.024;11.726;2024-01-15T02:17:12;93726.25;;;-1.92;89.17
9538;BME280;4807;48.024;11.726;2024-01-15T02:20:20;93726.25;;;-1.92;89.06
9538;BME280;4807;48.024;11.726;2024-01-15T02:23:29;93734.06;;;-1.92;89.61
9538;BME280;4807;48.024;11.726;2024-01-15T02:26:38;93741.41;;;-1.95;89.49
9538;BME280;4807;48.024;11.726;2024-01-15T02:29:47;93749.34;;;-2.05;88.79
9538;BME280;4807;48.024;11.726;2024-01-15T02:32:56;93748.97;;;-2.10;88.95
9538;BME280;4807;48.024;11.726;2024-01-15T02:36:05;93739.41;;;-2.01;88.27
9538;BME280;4807;48.024;11.726;2024-01-15T02:39:15;93749.22;;;-1.95;87.86
9538;BME280;4807;48.024;11.726;2024-01-15T02:42:23;93756.28;;;-1.87;87.27
9538;BME280;4807;48.024;11.726;2024-01-15T02:45:31;93758.50;;;-1.93;87.42
9538;BME280;4807;48.024;11.726;2024-01-15T02:48:40;93748.75;;;-1.90;86.40
9538;BME280;4807;48.024;11.726;2024-01-15T02:51:48;93766.66;;;-1.96;85.98
9538;BME280;4807;48.024;11.726;2024-01-15T02:54:58;93764.22;;;-1.97;85.41
9538;BME280;4807;48.024;11.726;2024-01-15T02:58:07;93775.56;;;-2.06;86.48
9538;BME280;4807;48.024;11.726;2024-01-15T03:01:18;93776.56;;;-1.99;84.52
9538;BME280;4807;48.024;11.726;2024-01-15T03:04:27;93777.69;;;-2.02;84.80
9538;BME280;4807;48.024;11.726;2024-01-15T03:07:36;93783.91;;;-2.03;85.78
9538;BME280;4807;48.024;11.726;2024-01-15T03:10:45;93778.50;;;-2.01;85.14
9538;BME280;4807;48.024;11.726;2024-01-15T03:13:54;93770.06;;;-2.03;85.52
9538;BME280;4807;48.024;11.726;2024-01-15T03:17:03;93770.19;;;-2.05;85.04
9538;BME280;4807;48.024;11.726;2024-01-15T03:20:12;93768.41;;;-2.04;85.62
9538;BME280;4807;48.024;11.726;2024-01-15T03:23:21;93768.56;;;-2.06;86.04
9538;BME280;4807;48.024;11.726;2024-01-15T03:26:30;93758.28;;;-2.07;84.92
9538;BME280;4807;48.024;11.726;2024-01-15T03:29:41;93751.63;;;-2.02;85.13
9538;BME280;4807;48.024;11.726;2024-01-15T03:32:49;93754.91;;;-2.00;84.41
9538;BME280;4807;48.024;11.726;2024-01-15T03:35:58;93755.88;;;-2.01;84.54
9538;BME280;4807;48.024;11.726;2024-01-15T03:39:07;93753.16;;;-1.91;83.05
9538;BME280;4807;48.024;11.726;2024-01-15T03:42:17;93757.88;;;-1.95;83.84
9538;BME280;4807;48.024;11.726;2024-01-15T03:45:25;93749.28;;;-1.87;82.94
9538;BME280;4807;48.024;11.726;2024-01-15T03:48:33;93758.56;;;-1.84;82.63
9538;BME280;4807;48.024;11.726;2024-01-15T03:51:42;93755.31;;;-1.86;83.64
9538;BME280;4807;48.024;11.726;2024-01-15T03:54:50;93757.75;;;-1.85;81.81
9538;BME280;4807;48.024;11.726;2024-01-15T03:58:00;93764.75;;;-1.85;82.62
9538;BME280;4807;48.024;11.726;2024-01-15T04:01:09;93755.94;;;-1.84;82.53
9538;BME280;4807;48.024;11.726;2024-01-15T04:04:18;93753.50;;;-1.86;82.70
9538;BME280;4807;48.024;11.726;2024-01-15T04:07:28;93750.88;;;-1.86;81.61
9538;BME280;4807;48.024;11.726;2024-01-15T04:10:36;93740.44;;;-1.86;82.79
9538;BME280;4807;48.024;11.726;2024-01-15T04:13:45;93749.28;;;-1.87;82.06
9538;BME280;4807;48.024;11.726;2024-01-15T04:16:54;93742.56;;;-1.89;82.01
9538;BME280;4807;48.024;11.726;2024-01-15T04:20:02;93740.63;;;-1.87;82.70
9538;BME280;4807;48.024;11.726;2024-01-15T04:23:11;93735.09;;;-1.84;82.90
9538;BME280;4807;48.024;11.726;2024-01-15T04:26:19;93738.50;;;-1.84;81.99
9538;BME280;4807;48.024;11.726;2024-01-15T04:29:29;93734.25;;;-1.85;82.15
9538;BME280;4807;48.024;11.726;2024-01-15T04:32:37;93744.41;;;-1.82;82.23
9538;BME280;4807;48.024;11.726;2024-01-15T04:35:46;93745.19;;;-1.89;81.88
9538;BME280;4807;48.024;11.726;2024-01-15T04:38:54;93734.13;;;-1.83;82.47
9538;BME280;4807;48.024;11.726;2024-01-15T04:42:03;93744.53;;;-1.83;81.86
9538;BME280;4807;48.024;11.726;2024-01-15T04:45:13;93751.03;;;-1.96;83.78
9538;BME280;4807;48.024;11.726;2024-01-15T04:48:22;93738.84;;;-1.87;82.72
9538;BME280;4807;48.024;11.726;2024-01-15T04:51:30;93749.75;;;-1.83;82.72
9538;BME280;4807;48.024;11.726;2024-01-15T04:54:39;93747.63;;;-1.88;83.91
9538;BME280;4807;48.024;11.726;2024-01-15T04:57:47;93745.72;;;-1.78;84.17
9538;BME280;4807;48.024;11.726;2024-01-15T05:00:57;93751.69;;;-1.85;83.31
9538;BME280;4807;48.024;11.726;2024-01-15T05:04:05;93747.19;;;-1.75;82.43
9538;BME280;4807;48.024;11.726;2024-01-15T05:07:14;93750.78;;;-1.76;81.96
9538;BME280;4807;48.024;11.726;2024-01-15T05:10:22;93743.09;;;-1.78;82.67
9538;BME280;4807;48.024;11.726;2024-01-15T05:13:30;93732.19;;;-1.81;84.14
9538;BME280;4807;48.024;11.726;2024-01-15T05:16:46;93747.53;;;-1.78;82.09
9538;BME280;4807;48.024;11.726;2024-01-15T05:19:54;93738.69;;;-1.77;83.20
9538;BME280;4807;48.024;11.726;2024-01-15T05:23:03;93731.50;;;-1.83;83.10
9538;BME280;4807;48.024;11.726;2024-01-15T05:26:12;93735.91;;;-1.84;83.54
9538;BME280;4807;48.024;11.726;2024-01-15T05:29:20;93728.25;;;-1.77;83.62
9538;BME280;4807;48.024;11.726;2024-01-15T05:32:30;93719.16;;;-1.73;83.59
9538;BME280;4807;48.024;11.726;2024-01-15T05:35:38;93727.88;;;-1.90;84.03
9538;BME280;4807;48.024;11.726;2024-01-15T05:38:46;93728.06;;;-1.84;83.88
9538;BME280;4807;48.024;11.726;2024-01-15T05:41:55;93743.56;;;-1.82;84.53
9538;BME280;4807;48.024;11.726;2024-01-15T05:45:05;93733.47;;;-1.77;84.38
9538;BME280;4807;48.024;11.726;2024-01-15T05:48:15;93736.75;;;-1.75;83.23
9538;BME280;4807;48.024;11.726;2024-01-15T05:51:23;93730.88;;;-1.77;82.80
9538;BME280;4807;48.024;11.726;2024-01-15T05:54:32;93728.59;;;-1.80;82.11
9538;BME280;4807;48.024;11.726;2024-01-15T05:57:40;93729.03;;;-1.85;83.09
9538;BME280;4807;48.024;11.726;2024-01-15T06:00:48;93739.81;;;-1.88;83.05
9538;BME280;4807;48.024;11.726;2024-01-15T06:03:58;93755.56;;;-1.98;83.16
9538;BME280;4807;48.024;11.726;2024-01-15T06:07:07;93749.06;;;-1.94;82.37
9538;BME280;4807;48.024;11.726;2024-01-15T06:10:15;93746.41;;;-2.02;83.30
9538;BME280;4807;48.024;11.726;2024-01-15T06:13:24;93742.53;;;-1.98;83.50
9538;BME280;4807;48.024;11.726;2024-01-15T06:16:32;93742.88;;;-1.93;82.59
9538;BME280;4807;48.024;11.726;2024-01-15T06:19:42;93746.28;;;-1.92;83.31
9538;BME280;4807;48.024;11.726;2024-01-15T06:22:50;93754.41;;;-2.03;82.87
9538;BME280;4807;48.024;11.726;2024-01-15T06:25:58;93759.16;;;-1.99;82.71
9538;BME280;4807;48.024;11.726;2024-01-15T06:29:06;93755.81;;;-2.09;83.58
9538;BME280;4807;48.024;11.726;2024-01-15T06:32:15;93754.69;;;-2.06;83.74
9538;BME280;4807;48.024;11.726;2024-01-15T06:35:26;93751.63;;;-2.02;83.24
9538;BME280;4807;48.024;11.726;2024-01-15T06:38:34;93740.88;;;-1.99;82.97
9538;BME280;4807;48.024;11.726;2024-01-15T06:41:42;93741.03;;;-2.00;83.61
9538;BME280;4807;48.024;11.726;2024-01-15T06:44:51;93745.19;;;-2.15;84.94
9538;BME280;4807;48.024;11.726;2024-01-15T06:47:59;93749.53;;;-1.98;83.08
9538;BME280;4807;48.024;11.726;2024-01-15T06:51:09;93742.44;;;-2.14;85.09
9538;BME280;4807;48.024;11.726;2024-01-15T06:54:17;93766.25;;;-2.09;84.79
9538;BME280;4807;48.024;11.726;2024-01-15T06:57:26;93752.13;;;-1.98;83.71
9538;BME280;4807;48.024;11.726;2024-01-15T07:00:34;93763.28;;;-2.14;84.49
9538;BME280;4807;48.024;11.726;2024-01-15T07:03:43;93750.50;;;-1.99;83.48
9538;BME280;4807;48.024;11.726;2024-01-15T07:06:53;93751.22;;;-1.89;83.56
9538;BME280;4807;48.024;11.726;2024-01-15T07:10:01;93751.03;;;-1.96;82.92
9538;BME280;4807;48.024;11.726;2024-01-15T07:13:11;93745.84;;;-1.87;82.99
9538;BME280;4807;48.024;11.726;2024-01-15T07:16:19;93758.19;;;-1.98;84.39
9538;BME280;4807;48.024;11.726;2024-01-15T07:19:43;93741.13;;;-1.84;83.11
9538;BME280;4807;48.024;11.726;2024-01-15T07:22:55;93735.41;;;-1.87;83.41
9538;BME280;4807;48.024;11.726;2024-01-15T07:26:04;93742.31;;;-1.78;83.80
9538;BME280;4807;48.024;11.726;2024-01-15T07:29:13;93746.16;;;-1.90;83.95
9538;BME280;4807;48.024;11.726;2024-01-15T07:32:21;93743.25;;;-1.87;84.45
9538;BME280;4807;48.024;11.726;2024-01-15T07:35:29;93741.16;;;-1.76;84.62
9538;BME280;4807;48.024;11.726;2024-01-15T07:38:39;93731.53;;;-1.75;82.72
9538;BME280;4807;48.024;11.726;2024-01-15T07:41:47;93727.97;;;-1.74;83.89
9538;BME280;4807;48.024;11.726;2024-01-15T07:44:55;93742.75;;;-1.83;84.03
9538;BME280;4807;48.024;11.726;2024-01-15T07:48:05;93734.19;;;-1.67;83.54
9538;BME280;4807;48.024;11.726;2024-01-15T07:51:14;93735.53;;;-1.63;84.14
9538;BME280;4807;48.024;11.726;2024-01-15T07:54:23;93735.19;;;-1.60;83.66
9538;BME280;4807;48.024;11.726;2024-01-15T07:57:33;93739.63;;;-1.52;83.12
9538;BME280;4807;48.024;11.726;2024-01-15T08:00:42;93745.66;;;-1.52;84.66
9538;BME280;4807;48.024;11.726;2024-01-15T08:03:51;93731.78;;;-1.52;83.62
9538;BME280;4807;48.024;11.726;2024-01-15T08:07:02;93719.75;;;-1.37;83.93
9538;BME280;4807;48.024;11.726;2024-01-15T08:10:12;93712.28;;;-1.32;82.18
9538;BME280;4807;48.024;11.726;2024-01-15T08:13:21;93722.56;;;-1.31;82.94
9538;BME280;4807;48.024;11.726;2024-01-15T08:16:30;93712.47;;;-1.26;82.92
9538;BME280;4807;48.024;11.726;2024-01-15T08:19:38;93720.16;;;-1.24;83.00
9538;BME280;4807;48.024;11.726;2024-01-15T08:22:48;93716.41;;;-1.22;82.83
9538;BME280;4807;48.024;11.726;2024-01-15T08:25:58;93711.19;;;-1.22;83.17
9538;BME280;4807;48.024;11.726;2024-01-15T08:29:06;93709.53;;;-1.23;82.87
9538;BME280;4807;48.024;11.726;2024-01-15T08:32:15;93709.88;;;-1.18;82.16
9538;BME280;4807;48.024;11.726;2024-01-15T08:35:24;93714.09;;;-1.25;82.12
9538;BME280;4807;48.024;11.726;2024-01-15T08:38:32;93723.06;;;-1.19;82.12
9538;BME280;4807;48.024;11.726;2024-01-15T08:41:42;93723.91;;;-1.19;81.18
9538;BME280;4807;48.024;11.726;2024-01-15T08:44:50;93728.94;;;-1.25;82.20
9538;BME280;4807;48.024;11.726;2024-01-15T08:47:59;93731.56;;;-1.25;82.75
9538;BME280;4807;48.024;11.726;2024-01-15T08:51:08;93729.13;;;-1.19;82.40
9538;BME280;4807;48.024;11.726;2024-01-15T08:54:16;93730.91;;;-1.19;82.06
9538;BME280;4807;48.024;11.726;2024-01-15T08:57:26;93728.81;;;-1.16;81.72
9538;BME280;4807;48.024;11.726;2024-01-15T09:00:34;93734.38;;;-1.10;81.91
9538;BME280;4807;48.024;11.726;2024-01-15T09:03:43;93731.59;;;-1.09;82.60
9538;BME280;4807;48.024;11.726;2024-01-15T09:06:51;93733.38;;;-1.09;81.81
9538;BME280;4807;48.024;11.726;2024-01-15T09:09:59;93732.25;;;-1.07;82.42
9538;BME280;4807;48.024;11.726;2024-01-15T09:13:09;93729.31;;;-1.04;81.91
9538;BME280;4807;48.024;11.726;2024-01-15T09:16:17;93725.41;;;-1.00;83.09
9538;BME280;4807;48.024;11.726;2024-01-15T09:19:35;93729.00;;;-0.93;82.40
9538;BME280;4807;48.024;11.726;2024-01-15T09:22:44;93724.63;;;-0.84;82.60
9538;BME280;4807;48.024;11.726;2024-01-15T09:25:52;93724.94;;;-0.79;83.20
9538;BME280;4807;48.024;11.726;2024-01-15T09:29:02;93736.69;;;-0.83;82.79
9538;BME280;4807;48.024;11.726;2024-01-15T09:32:10;93741.59;;;-0.80;82.09
9538;BME280;4807;48.024;11.726;2024-01-15T09:35:19;93748.31;;;-0.61;82.18
9538;BME280;4807;48.024;11.726;2024-01-15T09:38:31;93747.19;;;-0.59;82.06
9538;BME280;4807;48.024;11.726;2024-01-15T09:41:40;93733.59;;;-0.54;80.74
9538;BME280;4807;48.024;11.726;2024-01-15T09:44:50;93740.97;;;-0.66;80.32
9538;BME280;4807;48.024;11.726;2024-01-15T09:47:59;93736.22;;;-0.62;80.86
9538;BME280;4807;48.024;11.726;2024-01-15T09:51:07;93732.16;;;-0.49;79.94
9538;BME280;4807;48.024;11.726;2024-01-15T09:54:16;93732.47;;;-0.35;80.47
9538;BME280;4807;48.024;11.726;2024-01-15T09:57:25;93727.22;;;-0.27;78.87
9538;BME280;4807;48.024;11.726;2024-01-15T10:00:35;93719.66;;;-0.14;78.88
9538;BME280;4807;48.024;11.726;2024-01-15T10:03:46;93712.34;;;-0.19;78.51
9538;BME280;4807;48.024;11.726;2024-01-15T10:06:57;93711.53;;;-0.19;78.51
9538;BME280;4807;48.024;11.726;2024-01-15T10:10:10;93707.09;;;-0.19;77.23
9538;BME280;4807;48.024;11.726;2024-01-15T10:13:20;93711.38;;;-0.26;77.41
9538;BME280;4807;48.024;11.726;2024-01-15T10:16:30;93710.03;;;-0.22;77.91
9538;BME280;4807;48.024;11.726;2024-01-15T10:19:39;93716.75;;;-0.19;78.04
9538;BME280;4807;48.024;11.726;2024-01-15T10:22:51;93707.91;;;-0.10;78.25
9538;BME280;4807;48.024;11.726;2024-01-15T10:26:00;93697.25;;;0.08;76.63
9538;BME280;4807;48.024;11.726;2024-01-15T10:29:09;93689.25;;;-0.15;76.65
9538;BME280;4807;48.024;11.726;2024-01-15T10:32:19;93692.06;;;-0.17;77.86
9538;BME280;4807;48.024;11.726;2024-01-15T10:35:32;93687.66;;;-0.16;76.77
9538;BME280;4807;48.024;11.726;2024-01-15T10:38:43;93691.41;;;-0.19;76.91
9538;BME280;4807;48.024;11.726;2024-01-15T10:41:51;93687.97;;;-0.11;77.99
9538;BME280;4807;48.024;11.726;2024-01-15T10:44:59;93686.66;;;-0.15;78.19
9538;BME280;4807;48.024;11.726;2024-01-15T10:48:09;93683.41;;;-0.17;78.13
9538;BME280;4807;48.024;11.726;2024-01-15T10:51:18;93673.88;;;-0.02;78.11
9538;BME280;4807;48.024;11.726;2024-01-15T10:54:27;93691.28;;;0.30;78.25
9538;BME280;4807;48.024;11.726;2024-01-15T10:57:37;93678.16;;;0.38;76.80
9538;BME280;4807;48.024;11.726;2024-01-15T11:00:46;93673.34;;;0.50;77.44
9538;BME280;4807;48.024;11.726;2024-01-15T11:03:57;93676.34;;;0.38;77.54
9538;BME280;4807;48.024;11.726;2024-01-15T11:07:07;93679.22;;;0.52;78.42
9538;BME280;4807;48.024;11.726;2024-01-15T11:10:52;93679.13;;;0.68;77.86
9538;BME280;4807;48.024;11.726;2024-01-15T11:14:01;93676.59;;;0.52;77.82
9538;BME280;4807;48.024;11.726;2024-01-15T11:17:10;93664.53;;;0.73;77.64
9538;BME280;4807;48.024;11.726;2024-01-15T11:20:20;93660.75;;;0.76;77.09
9538;BME280;4807;48.024;11.726;2024-01-15T11:23:42;93641.53;;;0.84;75.69
9538;BME280;4807;48.024;11.726;2024-01-15T11:26:57;93643.06;;;0.78;76.66
9538;BME280;4807;48.024;11.726;2024-01-15T11:30:09;93629.69;;;0.73;75.73
9538;BME280;4807;48.024;11.726;2024-01-15T11:33:32;93627.38;;;1.15;75.30
9538;BME280;4807;48.024;11.726;2024-01-15T11:37:04;93628.16;;;0.79;75.60
9538;BME280;4807;48.024;11.726;2024-01-15T11:40:13;93628.91;;;0.64;76.94
9538;BME280;4807;48.024;11.726;2024-01-15T11:43:23;93620.50;;;0.46;77.28
9538;BME280;4807;48.024;11.726;2024-01-15T11:46:41;93622.63;;;0.43;79.08
9538;BME280;4807;48.024;11.726;2024-01-15T11:50:02;93627.22;;;0.49;79.14
9538;BME280;4807;48.024;11.726;2024-01-15T11:53:27;93626.31;;;0.64;78.21
9538;BME280;4807;48.024;11.726;2024-01-15T11:56:42;93623.97;;;0.69;78.00
9538;BME280;4807;48.024;11.726;2024-01-15T11:59:50;93629.50;;;0.74;78.38
9538;BME280;4807;48.024;11.726;2024-01-15T12:02:59;93622.50;;;0.67;78.74
9538;BME280;4807;48.024;11.726;2024-01-15T12:06:09;93619.66;;;0.54;78.63
9538;BME280;4807;48.024;11.726;2024-01-15T12:09:20;93617.91;;;0.69;78.51
9538;BME280;4807;48.024;11.726;2024-01-15T12:12:42;93592.59;;;0.84;77.54
9538;BME280;4807;48.024;11.726;2024-01-15T12:15:54;93594.66;;;0.66;78.04
9538;BME280;4807;48.024;11.726;2024-01-15T12:19:03;93587.66;;;0.89;78.40
9538;BME280;4807;48.024;11.726;2024-01-15T12:22:12;93587.06;;;0.79;78.06
9538;BME280;4807;48.024;11.726;2024-01-15T12:25:22;93585.66;;;0.91;77.23
9538;BME280;4807;48.024;11.726;2024-01-15T12:28:30;93575.66;;;0.95;76.97
9538;BME280;4807;48.024;11.726;2024-01-15T12:31:39;93571.81;;;1.05;76.68
9538;BME280;4807;48.024;11.726;2024-01-15T12:34:49;93587.06;;;0.79;77.55
9538;BME280;4807;48.024;11.726;2024-01-15T12:37:59;93572.06;;;0.73;77.78
9538;BME280;4807;48.024;11.726;2024-01-15T12:41:10;93565.28;;;1.01;77.30
9538;BME280;4807;48.024;11.726;2024-01-15T12:44:19;93564.19;;;0.73;78.08
9538;BME280;4807;48.024;11.726;2024-01-15T12:47:27;93547.69;;;0.42;78.58
9538;BME280;4807;48.024;11.726;2024-01-15T12:50:35;93547.59;;;0.58;78.50
9538;BME280;4807;48.024;11.726;2024-01-15T12:53:43;93543.69;;;0.76;78.25
9538;BME280;4807;48.024;11.726;2024-01-15T12:56:53;93531.06;;;0.80;78.27
9538;BME280;4807;48.024;11.726;2024-01-15T13:00:02;93534.69;;;0.79;78.04
9538;BME280;4807;48.024;11.726;2024-01-15T13:03:13;93540.72;;;0.80;77.85
9538;BME280;4807;48.024;11.726;2024-01-15T13:06:22;93530.28;;;0.57;78.84
9538;BME280;4807;48.024;11.726;2024-01-15T13:09:30;93529.91;;;0.37;81.29
9538;BME280;4807;48.024;11.726;2024-01-15T13:12:41;93525.53;;;0.29;80.90
9538;BME280;4807;48.024;11.726;2024-01-15T13:15:49;93524.78;;;0.21;81.81
9538;BME280;4807;48.024;11.726;2024-01-15T13:18:58;93532.16;;;0.17;81.99
9538;BME280;4807;48.024;11.726;2024-01-15T13:22:06;93527.19;;;0.30;81.16
9538;BME280;4807;48.024;11.726;2024-01-15T13:25:16;93542.47;;;0.42;80.60
9538;BME280;4807;48.024;11.726;2024-01-15T13:28:25;93553.31;;;0.38;81.16
9538;BME280;4807;48.024;11.726;2024-01-15T13:31:34;93551.28;;;0.49;80.71
9538;BME280;4807;48.024;11.726;2024-01-15T13:34:43;93544.00;;;0.59;80.61
9538;BME280;4807;48.024;11.726;2024-01-15T13:37:52;93549.91;;;0.75;79.26
9538;BME280;4807;48.024;11.726;2024-01-15T13:41:00;93555.41;;;0.89;78.31
9538;BME280;4807;48.024;11.726;2024-01-15T13:44:11;93550.84;;;1.05;78.52
9538;BME280;4807;48.024;11.726;2024-01-15T13:47:19;93542.91;;;1.13;77.00
9538;BME280;4807;48.024;11.726;2024-01-15T13:50:27;93541.38;;;1.19;76.99
9538;BME280;4807;48.024;11.726;2024-01-15T13:53:37;93538.00;;;1.10;75.67
9538;BME280;4807;48.024;11.726;2024-01-15T13:56:46;93539.00;;;1.09;76.35
9538;BME280;4807;48.024;11.726;2024-01-15T13:59:56;93562.75;;;1.08;76.52
9538;BME280;4807;48.024;11.726;2024-01-15T14:03:04;93576.66;;;1.08;76.20
9538;BME280;4807;48.024;11.726;2024-01-15T14:06:13;93576.91;;;0.99;76.05
9538;BME280;4807;48.024;11.726;2024-01-15T14:09:21;93586.91;;;0.81;75.73
9538;BME280;4807;48.024;11.726;2024-01-15T14:12:29;93578.84;;;0.82;78.05
9538;BME280;4807;48.024;11.726;2024-01-15T14:15:39;93582.81;;;0.78;77.45
9538;BME280;4807;48.024;11.726;2024-01-15T14:18:48;93577.91;;;0.75;77.87
9538;BME280;4807;48.024;11.726;2024-01-15T14:21:57;93586.25;;;0.79;77.72
9538;BME280;4807;48.024;11.726;2024-01-15T14:25:06;93588.69;;;0.80;78.01
9538;BME280;4807;48.024;11.726;2024-01-15T14:28:15;93586.81;;;0.66;77.59
9538;BME280;4807;48.024;11.726;2024-01-15T14:31:25;93592.06;;;0.66;77.52
9538;BME280;4807;48.024;11.726;2024-01-15T14:34:35;93602.63;;;0.50;78.02
9538;BME280;4807;48.024;11.726;2024-01-15T14:37:44;93598.13;;;0.35;77.81
9538;BME280;4807;48.024;11.726;2024-01-15T14:40:52;93607.97;;;0.33;78.21
9538;BME280;4807;48.024;11.726;2024-01-15T14:44:01;93607.34;;;0.31;80.29
9538;BME280;4807;48.024;11.726;2024-01-15T14:47:10;93618.47;;;0.25;79.49
9538;BME280;4807;48.024;11.726;2024-01-15T14:50:18;93604.13;;;0.21;79.13
9538;BME280;4807;48.024;11.726;2024-01-15T14:53:27;93609.88;;;0.09;80.01
9538;BME280;4807;48.024;11.726;2024-01-15T14:56:35;93620.22;;;0.02;79.29
9538;BME280;4807;48.024;11.726;2024-01-15T14:59:43;93614.06;;;-0.13;80.58
9538;BME280;4807;48.024;11.726;2024-01-15T15:02:53;93629.59;;;-0.12;80.46
9538;BME280;4807;48.024;11.726;2024-01-15T15:06:01;93626.16;;;-0.12;81.19
9538;BME280;4807;48.024;11.726;2024-01-15T15:09:10;93619.13;;;-0.12;81.39
9538;BME280;4807;48.024;11.726;2024-01-15T15:12:19;93615.38;;;-0.09;80.05
9538;BME280;4807;48.024;11.726;2024-01-15T15:15:27;93622.53;;;-0.03;80.00
9538;BME280;4807;48.024;11.726;2024-01-15T15:18:39;93622.84;;;-0.06;80.25
9538;BME280;4807;48.024;11.726;2024-01-15T15:21:47;93634.50;;;-0.09;80.40
9538;BME280;4807;48.024;11.726;2024-01-15T15:24:56;93646.75;;;-0.09;81.06
9538;BME280;4807;48.024;11.726;2024-01-15T15:28:05;93652.66;;;-0.23;82.24
9538;BME280;4807;48.024;11.726;2024-01-15T15:31:14;93654.94;;;-0.12;81.27
9538;BME280;4807;48.024;11.726;2024-01-15T15:34:23;93661.97;;;-0.21;81.60
9538;BME280;4807;48.024;11.726;2024-01-15T15:37:33;93658.72;;;-0.23;81.06
9538;BME280;4807;48.024;11.726;2024-01-15T15:40:41;93665.56;;;-0.22;80.98
9538;BME280;4807;48.024;11.726;2024-01-15T15:43:50;93665.25;;;-0.19;80.50
9538;BME280;4807;48.024;11.726;2024-01-15T15:46:59;93661.66;;;-0.18;81.19
9538;BME280;4807;48.024;11.726;2024-01-15T15:50:09;93662.94;;;-0.14;80.57
9538;BME280;4807;48.024;11.726;2024-01-15T15:53:19;93674.22;;;-0.13;80.93
9538;BME280;4807;48.024;11.726;2024-01-15T15:56:29;93674.91;;;-0.19;81.40
9538;BME280;4807;48.024;11.726;2024-01-15T15:59:40;93686.34;;;-0.20;80.99
9538;BME280;4807;48.024;11.726;2024-01-15T16:02:48;93692.22;;;-0.18;80.97
9538;BME280;4807;48.024;11.726;2024-01-15T16:05:58;93695.84;;;-0.27;82.66
9538;BME280;4807;48.024;11.726;2024-01-15T16:09:07;93695.19;;;-0.29;83.66
9538;BME280;4807;48.024;11.726;2024-01-15T16:12:18;93701.56;;;-0.40;84.10
9538;BME280;4807;48.024;11.726;2024-01-15T16:15:30;93700.78;;;-0.41;84.84
9538;BME280;4807;48.024;11.726;2024-01-15T16:18:56;93715.97;;;-0.44;85.61
9538;BME280;4807;48.024;11.726;2024-01-15T16:22:26;93720.53;;;-0.46;86.24
9538;BME280;4807;48.024;11.726;2024-01-15T16:25:57;93719.72;;;-0.55;87.97
9538;BME280;4807;48.024;11.726;2024-01-15T16:29:11;93736.22;;;-0.62;88.31
9538;BME280;4807;48.024;11.726;2024-01-15T16:32:24;93730.69;;;-0.59;88.65
9538;BME280;4807;48.024;11.726;2024-01-15T16:35:35;93732.16;;;-0.73;89.66
9538;BME280;4807;48.024;11.726;2024-01-15T16:38:45;93739.81;;;-0.63;89.87
9538;BME280;4807;48.024;11.726;2024-01-15T16:41:55;93745.03;;;-0.63;90.95
9538;BME280;4807;48.024;11.726;2024-01-15T16:45:04;93743.59;;;-0.66;91.05
9538;BME280;4807;48.024;11.726;2024-01-15T16:48:13;93749.28;;;-0.62;90.18
9538;BME280;4807;48.024;11.726;2024-01-15T16:51:22;93751.06;;;-0.63;91.37
9538;BME280;4807;48.024;11.726;2024-01-15T16:54:32;93752.25;;;-0.65;91.73
9538;BME280;4807;48.024;11.726;2024-01-15T16:57:41;93760.41;;;-0.60;91.07
9538;BME280;4807;48.024;11.726;2024-01-15T17:00:50;93764.16;;;-0.55;91.55